sensor_id;sensor_type;location;lat;lon;timestamp;P1;durP1;ratioP1;P2;durP2;ratioP2
6987;SDS011;3534;49.960;8.018;2024-01-11T00:02:05;36.57;;;16.27;;
6987;SDS011;3534;49.960;8.018;2024-01-11T00:04:33;37.77;;;16.93;;
6987;SDS011;3534;49.960;8.018;2024-01-11T00:07:00;36.70;;;16.73;;
6987;SDS011;3534;49.960;8.018;2024-01-11T00:09:27;42.83;;;20.30;;
6987;SDS011;3534;49.960;8.018;2024-01-11T00:11:53;40.77;;;18.27;;
6987;SDS011;3534;49.960;8.018;2024-01-11T00:14:20;35.10;;;16.77;;
6987;SDS011;3534;49.960;8.018;2024-01-11T00:16:47;33.40;;;16.13;;
6987;SDS011;3534;49.960;8.018;2024-01-11T00:19:12;35.73;;;16.90;;
6987;SDS011;3534;49.960;8.018;2024-01-11T00:21:40;37.90;;;17.80;;
6987;SDS011;3534;49.960;8.018;2024-01-11T00:24:07;32.20;;;15.67;;
6987;SDS011;3534;49.960;8.018;2024-01-11T00:26:34;38.30;;;18.20;;
6987;SDS011;3534;49.960;8.018;2024-01-11T00:29:01;30.80;;;16.20;;
6987;SDS011;3534;49.960;8.018;2024-01-11T00:31:27;35.63;;;15.73;;
6987;SDS011;3534;49.960;8.018;2024-01-11T00:33:54;30.80;;;14.23;;
6987;SDS011;3534;49.960;8.018;2024-01-11T00:36:21;29.63;;;15.23;;
6987;SDS011;3534;49.960;8.018;2024-01-11T00:38:49;35.90;;;15.40;;
6987;SDS011;3534;49.960;8.018;2024-01-11T00:41:15;30.47;;;14.20;;
6987;SDS011;3534;49.960;8.018;2024-01-11T00:43:42;31.80;;;14.43;;
6987;SDS011;3534;49.960;8.018;2024-01-11T00:46:09;37.13;;;15.77;;
6987;SDS011;3534;49.960;8.018;2024-01-11T00:48:35;31.17;;;15.67;;
6987;SDS011;3534;49.960;8.018;2024-01-11T00:51:03;28.70;;;14.53;;
6987;SDS011;3534;49.960;8.018;2024-01-11T00:53:30;28.03;;;14.97;;
6987;SDS011;3534;49.960;8.018;2024-01-11T00:55:59;38.10;;;16.23;;
6987;SDS011;3534;49.960;8.018;2024-01-11T00:58:26;29.33;;;14.10;;
6987;SDS011;3534;49.960;8.018;2024-01-11T01:00:53;31.67;;;14.20;;
6987;SDS011;3534;49.960;8.018;2024-01-11T01:03:20;32.13;;;15.53;;
6987;SDS011;3534;49.960;8.018;2024-01-11T01:05:47;30.33;;;15.10;;
6987;SDS011;3534;49.960;8.018;2024-01-11T01:08:14;27.73;;;14.33;;
6987;SDS011;3534;49.960;8.018;2024-01-11T01:10:40;26.87;;;13.97;;
6987;SDS011;3534;49.960;8.018;2024-01-11T01:13:09;29.60;;;14.97;;
6987;SDS011;3534;49.960;8.018;2024-01-11T01:15:36;26.20;;;14.33;;
6987;SDS011;3534;49.960;8.018;2024-01-11T01:18:03;29.30;;;15.40;;
6987;SDS011;3534;49.960;8.018;2024-01-11T01:20:29;29.50;;;14.10;;
6987;SDS011;3534;49.960;8.018;2024-01-11T01:22:56;34.67;;;15.37;;
6987;SDS011;3534;49.960;8.018;2024-01-11T01:25:23;31.93;;;13.97;;
6987;SDS011;3534;49.960;8.018;2024-01-11T01:27:50;28.53;;;13.90;;
6987;SDS011;3534;49.960;8.018;2024-01-11T01:30:18;34.10;;;15.40;;
6987;SDS011;3534;49.960;8.018;2024-01-11T01:32:44;26.77;;;13.80;;
6987;SDS011;3534;49.960;8.018;2024-01-11T01:35:11;31.97;;;14.87;;
6987;SDS011;3534;49.960;8.018;2024-01-11T01:37:38;34.93;;;15.20;;
6987;SDS011;3534;49.960;8.018;2024-01-11T01:40:05;32.60;;;15.37;;
6987;SDS011;3534;49.960;8.018;2024-01-11T01:42:34;26.90;;;14.60;;
6987;SDS011;3534;49.960;8.018;2024-01-11T01:45:00;30.63;;;15.23;;
6987;SDS011;3534;49.960;8.018;2024-01-11T01:47:29;34.13;;;14.33;;
6987;SDS011;3534;49.960;8.018;2024-01-11T01:49:55;33.20;;;14.07;;
6987;SDS011;3534;49.960;8.018;2024-01-11T01:52:22;28.40;;;14.27;;
6987;SDS011;3534;49.960;8.018;2024-01-11T01:54:50;34.27;;;16.63;;
6987;SDS011;3534;49.960;8.018;2024-01-11T01:57:17;33.10;;;14.47;;
6987;SDS011;3534;49.960;8.018;2024-01-11T01:59:45;30.07;;;13.33;;
6987;SDS011;3534;49.960;8.018;2024-01-11T02:02:17;26.97;;;14.47;;
6987;SDS011;3534;49.960;8.018;2024-01-11T02:04:46;33.83;;;15.57;;
6987;SDS011;3534;49.960;8.018;2024-01-11T02:07:12;27.83;;;15.13;;
6987;SDS011;3534;49.960;8.018;2024-01-11T02:09:40;30.17;;;13.80;;
6987;SDS011;3534;49.960;8.018;2024-01-11T02:12:06;32.27;;;14.57;;
6987;SDS011;3534;49.960;8.018;2024-01-11T02:14:36;30.00;;;13.03;;
6987;SDS011;3534;49.960;8.018;2024-01-11T02:17:03;28.00;;;14.47;;
6987;SDS011;3534;49.960;8.018;2024-01-11T02:19:30;34.10;;;15.50;;
6987;SDS011;3534;49.960;8.018;2024-01-11T02:22:00;32.60;;;15.17;;
6987;SDS011;3534;49.960;8.018;2024-01-11T02:24:34;30.30;;;14.00;;
6987;SDS011;3534;49.960;8.018;2024-01-11T02:27:02;32.87;;;14.37;;
6987;SDS011;3534;49.960;8.018;2024-01-11T02:29:30;35.07;;;14.83;;
6987;SDS011;3534;49.960;8.018;2024-01-11T02:31:57;29.77;;;15.23;;
6987;SDS011;3534;49.960;8.018;2024-01-11T02:34:27;28.93;;;14.50;;
6987;SDS011;3534;49.960;8.018;2024-01-11T02:36:54;34.70;;;16.37;;
6987;SDS011;3534;49.960;8.018;2024-01-11T02:39:22;36.37;;;16.00;;
6987;SDS011;3534;49.960;8.018;2024-01-11T02:41:55;32.47;;;15.77;;
6987;SDS011;3534;49.960;8.018;2024-01-11T02:44:23;30.10;;;14.43;;
6987;SDS011;3534;49.960;8.018;2024-01-11T02:46:49;31.30;;;15.57;;
6987;SDS011;3534;49.960;8.018;2024-01-11T02:49:16;29.53;;;14.50;;
6987;SDS011;3534;49.960;8.018;2024-01-11T02:51:43;26.10;;;14.77;;
6987;SDS011;3534;49.960;8.018;2024-01-11T02:54:10;33.80;;;14.47;;
6987;SDS011;3534;49.960;8.018;2024-01-11T02:56:36;32.00;;;14.57;;
6987;SDS011;3534;49.960;8.018;2024-01-11T02:59:04;28.83;;;13.73;;
6987;SDS011;3534;49.960;8.018;2024-01-11T03:01:31;27.47;;;13.67;;
6987;SDS011;3534;49.960;8.018;2024-01-11T03:03:58;25.53;;;12.77;;
6987;SDS011;3534;49.960;8.018;2024-01-11T03:06:25;27.37;;;13.80;;
6987;SDS011;3534;49.960;8.018;2024-01-11T03:08:51;28.27;;;14.47;;
6987;SDS011;3534;49.960;8.018;2024-01-11T03:11:18;31.70;;;13.63;;
6987;SDS011;3534;49.960;8.018;2024-01-11T03:13:44;26.83;;;13.00;;
6987;SDS011;3534;49.960;8.018;2024-01-11T03:16:12;24.07;;;13.20;;
6987;SDS011;3534;49.960;8.018;2024-01-11T03:18:39;30.83;;;14.83;;
6987;SDS011;3534;49.960;8.018;2024-01-11T03:21:06;25.33;;;13.30;;
6987;SDS011;3534;49.960;8.018;2024-01-11T03:23:33;26.80;;;13.70;;
6987;SDS011;3534;49.960;8.018;2024-01-11T03:25:59;27.47;;;13.37;;
6987;SDS011;3534;49.960;8.018;2024-01-11T03:28:26;25.37;;;13.57;;
6987;SDS011;3534;49.960;8.018;2024-01-11T03:30:52;29.70;;;13.80;;
6987;SDS011;3534;49.960;8.018;2024-01-11T03:33:20;25.17;;;13.20;;
6987;SDS011;3534;49.960;8.018;2024-01-11T03:35:47;30.40;;;13.83;;
6987;SDS011;3534;49.960;8.018;2024-01-11T03:38:14;28.33;;;11.93;;
6987;SDS011;3534;49.960;8.018;2024-01-11T03:40:40;24.40;;;13.03;;
6987;SDS011;3534;49.960;8.018;2024-01-11T03:43:07;23.63;;;13.27;;
6987;SDS011;3534;49.960;8.018;2024-01-11T03:45:33;25.67;;;13.30;;
6987;SDS011;3534;49.960;8.018;2024-01-11T03:48:00;24.33;;;12.90;;
6987;SDS011;3534;49.960;8.018;2024-01-11T03:50:28;29.63;;;13.10;;
6987;SDS011;3534;49.960;8.018;2024-01-11T03:52:55;29.10;;;13.30;;
6987;SDS011;3534;49.960;8.018;2024-01-11T03:55:21;31.57;;;14.13;;
6987;SDS011;3534;49.960;8.018;2024-01-11T03:57:48;28.63;;;12.53;;
6987;SDS011;3534;49.960;8.018;2024-01-11T04:00:15;26.90;;;13.27;;
6987;SDS011;3534;49.960;8.018;2024-01-11T04:02:42;26.53;;;12.57;;
6987;SDS011;3534;49.960;8.018;2024-01-11T04:05:09;29.30;;;13.40;;
6987;SDS011;3534;49.960;8.018;2024-01-11T04:07:37;23.23;;;12.33;;
6987;SDS011;3534;49.960;8.018;2024-01-11T04:10:04;25.60;;;12.67;;
6987;SDS011;3534;49.960;8.018;2024-01-11T04:12:31;32.30;;;13.53;;
6987;SDS011;3534;49.960;8.018;2024-01-11T04:14:58;27.10;;;12.57;;
6987;SDS011;3534;49.960;8.018;2024-01-11T04:17:25;26.17;;;13.37;;
6987;SDS011;3534;49.960;8.018;2024-01-11T04:19:51;25.10;;;12.47;;
6987;SDS011;3534;49.960;8.018;2024-01-11T04:22:18;33.70;;;13.97;;
6987;SDS011;3534;49.960;8.018;2024-01-11T04:24:46;23.47;;;12.70;;
6987;SDS011;3534;49.960;8.018;2024-01-11T04:27:12;26.60;;;12.07;;
6987;SDS011;3534;49.960;8.018;2024-01-11T04:29:39;26.93;;;12.87;;
6987;SDS011;3534;49.960;8.018;2024-01-11T04:32:06;32.00;;;13.67;;
6987;SDS011;3534;49.960;8.018;2024-01-11T04:34:32;24.70;;;13.90;;
6987;SDS011;3534;49.960;8.018;2024-01-11T04:36:59;28.60;;;14.30;;
6987;SDS011;3534;49.960;8.018;2024-01-11T04:39:25;29.10;;;13.93;;
6987;SDS011;3534;49.960;8.018;2024-01-11T04:41:53;23.23;;;14.23;;
6987;SDS011;3534;49.960;8.018;2024-01-11T04:44:20;25.53;;;14.30;;
6987;SDS011;3534;49.960;8.018;2024-01-11T04:46:47;26.37;;;13.60;;
6987;SDS011;3534;49.960;8.018;2024-01-11T04:49:13;29.10;;;14.70;;
6987;SDS011;3534;49.960;8.018;2024-01-11T04:51:40;27.23;;;13.93;;
6987;SDS011;3534;49.960;8.018;2024-01-11T04:54:07;31.23;;;14.67;;
6987;SDS011;3534;49.960;8.018;2024-01-11T04:56:34;32.13;;;14.97;;
6987;SDS011;3534;49.960;8.018;2024-01-11T04:59:02;35.90;;;15.30;;
6987;SDS011;3534;49.960;8.018;2024-01-11T05:01:28;34.20;;;14.00;;
6987;SDS011;3534;49.960;8.018;2024-01-11T05:03:55;28.17;;;14.80;;
6987;SDS011;3534;49.960;8.018;2024-01-11T05:06:22;29.87;;;15.00;;
6987;SDS011;3534;49.960;8.018;2024-01-11T05:08:50;34.23;;;15.40;;
6987;SDS011;3534;49.960;8.018;2024-01-11T05:11:17;26.00;;;13.40;;
6987;SDS011;3534;49.960;8.018;2024-01-11T05:13:44;27.97;;;12.70;;
6987;SDS011;3534;49.960;8.018;2024-01-11T05:16:21;29.30;;;13.47;;
6987;SDS011;3534;49.960;8.018;2024-01-11T05:21:16;25.97;;;13.93;;
6987;SDS011;3534;49.960;8.018;2024-01-11T05:23:43;31.03;;;15.03;;
6987;SDS011;3534;49.960;8.018;2024-01-11T05:26:10;32.00;;;14.70;;
6987;SDS011;3534;49.960;8.018;2024-01-11T05:28:38;39.10;;;16.63;;
6987;SDS011;3534;49.960;8.018;2024-01-11T05:31:05;34.10;;;16.80;;
6987;SDS011;3534;49.960;8.018;2024-01-11T05:33:34;34.30;;;16.03;;
6987;SDS011;3534;49.960;8.018;2024-01-11T05:36:01;29.27;;;14.90;;
6987;SDS011;3534;49.960;8.018;2024-01-11T05:38:28;32.80;;;15.10;;
6987;SDS011;3534;49.960;8.018;2024-01-11T05:40:55;31.40;;;15.00;;
6987;SDS011;3534;49.960;8.018;2024-01-11T05:43:22;35.20;;;16.70;;
6987;SDS011;3534;49.960;8.018;2024-01-11T05:45:49;35.23;;;18.27;;
6987;SDS011;3534;49.960;8.018;2024-01-11T05:48:16;32.20;;;16.87;;
6987;SDS011;3534;49.960;8.018;2024-01-11T05:50:44;33.43;;;17.23;;
6987;SDS011;3534;49.960;8.018;2024-01-11T05:53:11;31.53;;;17.43;;
6987;SDS011;3534;49.960;8.018;2024-01-11T05:55:38;34.43;;;15.67;;
6987;SDS011;3534;49.960;8.018;2024-01-11T05:58:05;32.77;;;15.67;;
6987;SDS011;3534;49.960;8.018;2024-01-11T06:00:32;30.63;;;15.40;;
6987;SDS011;3534;49.960;8.018;2024-01-11T06:02:59;36.43;;;15.77;;
6987;SDS011;3534;49.960;8.018;2024-01-11T06:05:26;28.83;;;14.07;;
6987;SDS011;3534;49.960;8.018;2024-01-11T06:07:54;26.20;;;12.70;;
6987;SDS011;3534;49.960;8.018;2024-01-11T06:10:21;27.30;;;13.90;;
6987;SDS011;3534;49.960;8.018;2024-01-11T06:12:48;28.27;;;13.53;;
6987;SDS011;3534;49.960;8.018;2024-01-11T06:15:14;32.37;;;14.80;;
6987;SDS011;3534;49.960;8.018;2024-01-11T06:17:41;25.90;;;12.80;;
6987;SDS011;3534;49.960;8.018;2024-01-11T06:20:08;25.63;;;13.87;;
6987;SDS011;3534;49.960;8.018;2024-01-11T06:22:36;26.97;;;12.77;;
6987;SDS011;3534;49.960;8.018;2024-01-11T06:25:05;30.57;;;14.83;;
6987;SDS011;3534;49.960;8.018;2024-01-11T06:27:32;32.70;;;15.70;;
6987;SDS011;3534;49.960;8.018;2024-01-11T06:29:59;33.03;;;15.00;;
6987;SDS011;3534;49.960;8.018;2024-01-11T06:32:25;38.40;;;17.47;;
6987;SDS011;3534;49.960;8.018;2024-01-11T06:34:52;39.70;;;17.33;;
6987;SDS011;3534;49.960;8.018;2024-01-11T06:37:19;36.60;;;18.07;;
6987;SDS011;3534;49.960;8.018;2024-01-11T06:39:46;40.10;;;17.23;;
6987;SDS011;3534;49.960;8.018;2024-01-11T06:42:14;44.40;;;18.10;;
6987;SDS011;3534;49.960;8.018;2024-01-11T06:44:40;33.17;;;16.33;;
6987;SDS011;3534;49.960;8.018;2024-01-11T06:47:07;36.13;;;17.47;;
6987;SDS011;3534;49.960;8.018;2024-01-11T06:49:34;45.30;;;18.13;;
6987;SDS011;3534;49.960;8.018;2024-01-11T06:52:03;39.37;;;18.30;;
6987;SDS011;3534;49.960;8.018;2024-01-11T06:54:30;32.77;;;15.67;;
6987;SDS011;3534;49.960;8.018;2024-01-11T06:56:57;33.50;;;16.83;;
6987;SDS011;3534;49.960;8.018;2024-01-11T06:59:25;33.20;;;17.17;;
6987;SDS011;3534;49.960;8.018;2024-01-11T07:01:52;39.37;;;17.67;;
6987;SDS011;3534;49.960;8.018;2024-01-11T07:04:18;37.80;;;17.67;;
6987;SDS011;3534;49.960;8.018;2024-01-11T07:06:45;40.77;;;19.00;;
6987;SDS011;3534;49.960;8.018;2024-01-11T07:09:12;30.80;;;15.97;;
6987;SDS011;3534;49.960;8.018;2024-01-11T07:11:39;38.93;;;18.03;;
6987;SDS011;3534;49.960;8.018;2024-01-11T07:14:06;40.87;;;18.23;;
6987;SDS011;3534;49.960;8.018;2024-01-11T07:16:34;41.80;;;18.17;;
6987;SDS011;3534;49.960;8.018;2024-01-11T07:19:02;45.27;;;20.47;;
6987;SDS011;3534;49.960;8.018;2024-01-11T07:21:28;37.63;;;18.93;;
6987;SDS011;3534;49.960;8.018;2024-01-11T07:23:56;37.70;;;18.30;;
6987;SDS011;3534;49.960;8.018;2024-01-11T07:26:23;36.37;;;18.53;;
6987;SDS011;3534;49.960;8.018;2024-01-11T07:28:50;39.93;;;20.27;;
6987;SDS011;3534;49.960;8.018;2024-01-11T07:31:19;35.20;;;18.37;;
6987;SDS011;3534;49.960;8.018;2024-01-11T07:33:47;43.30;;;19.87;;
6987;SDS011;3534;49.960;8.018;2024-01-11T07:36:15;50.17;;;19.93;;
6987;SDS011;3534;49.960;8.018;2024-01-11T07:38:42;41.20;;;21.00;;
6987;SDS011;3534;49.960;8.018;2024-01-11T07:41:09;41.33;;;19.00;;
6987;SDS011;3534;49.960;8.018;2024-01-11T07:43:35;43.83;;;18.90;;
6987;SDS011;3534;49.960;8.018;2024-01-11T07:46:02;40.13;;;18.03;;
6987;SDS011;3534;49.960;8.018;2024-01-11T07:48:30;37.67;;;18.43;;
6987;SDS011;3534;49.960;8.018;2024-01-11T07:50:58;41.37;;;17.80;;
6987;SDS011;3534;49.960;8.018;2024-01-11T07:53:26;52.70;;;20.83;;
6987;SDS011;3534;49.960;8.018;2024-01-11T07:55:52;46.47;;;21.13;;
6987;SDS011;3534;49.960;8.018;2024-01-11T07:58:19;60.40;;;24.60;;
6987;SDS011;3534;49.960;8.018;2024-01-11T08:00:46;64.37;;;28.63;;
6987;SDS011;3534;49.960;8.018;2024-01-11T08:03:13;48.40;;;21.77;;
6987;SDS011;3534;49.960;8.018;2024-01-11T08:05:40;51.83;;;24.50;;
6987;SDS011;3534;49.960;8.018;2024-01-11T08:08:09;43.63;;;20.00;;
6987;SDS011;3534;49.960;8.018;2024-01-11T08:10:36;37.13;;;18.73;;
6987;SDS011;3534;49.960;8.018;2024-01-11T08:13:03;38.70;;;19.70;;
6987;SDS011;3534;49.960;8.018;2024-01-11T08:15:30;35.80;;;18.37;;
6987;SDS011;3534;49.960;8.018;2024-01-11T08:17:56;36.23;;;17.80;;
6987;SDS011;3534;49.960;8.018;2024-01-11T08:20:23;41.63;;;18.50;;
6987;SDS011;3534;49.960;8.018;2024-01-11T08:22:50;50.30;;;22.43;;
6987;SDS011;3534;49.960;8.018;2024-01-11T08:25:18;48.53;;;20.23;;
6987;SDS011;3534;49.960;8.018;2024-01-11T08:27:45;43.10;;;19.60;;
6987;SDS011;3534;49.960;8.018;2024-01-11T08:30:11;45.30;;;19.57;;
6987;SDS011;3534;49.960;8.018;2024-01-11T08:32:38;36.43;;;18.77;;
6987;SDS011;3534;49.960;8.018;2024-01-11T08:35:07;46.13;;;19.70;;
6987;SDS011;3534;49.960;8.018;2024-01-11T08:37:35;44.43;;;19.37;;
6987;SDS011;3534;49.960;8.018;2024-01-11T08:40:02;40.17;;;19.13;;
6987;SDS011;3534;49.960;8.018;2024-01-11T08:42:31;65.30;;;22.20;;
6987;SDS011;3534;49.960;8.018;2024-01-11T08:44:58;52.77;;;22.70;;
6987;SDS011;3534;49.960;8.018;2024-01-11T08:47:28;57.00;;;22.67;;
6987;SDS011;3534;49.960;8.018;2024-01-11T08:49:55;45.50;;;20.77;;
6987;SDS011;3534;49.960;8.018;2024-01-11T08:52:22;54.90;;;23.97;;
6987;SDS011;3534;49.960;8.018;2024-01-11T08:54:49;50.50;;;21.70;;
6987;SDS011;3534;49.960;8.018;2024-01-11T08:57:16;52.03;;;22.30;;
6987;SDS011;3534;49.960;8.018;2024-01-11T08:59:44;58.60;;;26.03;;
6987;SDS011;3534;49.960;8.018;2024-01-11T09:02:11;53.57;;;25.00;;
6987;SDS011;3534;49.960;8.018;2024-01-11T09:04:38;50.63;;;24.87;;
6987;SDS011;3534;49.960;8.018;2024-01-11T09:07:04;46.33;;;23.03;;
6987;SDS011;3534;49.960;8.018;2024-01-11T09:09:31;44.43;;;21.00;;
6987;SDS011;3534;49.960;8.018;2024-01-11T09:11:58;51.30;;;23.80;;
6987;SDS011;3534;49.960;8.018;2024-01-11T09:14:25;47.13;;;22.47;;
6987;SDS011;3534;49.960;8.018;2024-01-11T09:16:54;47.10;;;23.07;;
6987;SDS011;3534;49.960;8.018;2024-01-11T09:19:21;46.57;;;21.97;;
6987;SDS011;3534;49.960;8.018;2024-01-11T09:21:48;50.00;;;23.60;;
6987;SDS011;3534;49.960;8.018;2024-01-11T09:24:15;48.37;;;20.63;;
6987;SDS011;3534;49.960;8.018;2024-01-11T09:26:42;40.67;;;20.80;;
6987;SDS011;3534;49.960;8.018;2024-01-11T09:29:08;44.07;;;22.33;;
6987;SDS011;3534;49.960;8.018;2024-01-11T09:31:35;47.10;;;22.33;;
6987;SDS011;3534;49.960;8.018;2024-01-11T09:34:03;44.63;;;21.97;;
6987;SDS011;3534;49.960;8.018;2024-01-11T09:36:30;50.93;;;23.80;;
6987;SDS011;3534;49.960;8.018;2024-01-11T09:38:58;42.03;;;21.87;;
6987;SDS011;3534;49.960;8.018;2024-01-11T09:41:24;37.33;;;18.33;;
6987;SDS011;3534;49.960;8.018;2024-01-11T09:43:52;40.67;;;20.60;;
6987;SDS011;3534;49.960;8.018;2024-01-11T09:46:20;36.67;;;19.50;;
6987;SDS011;3534;49.960;8.018;2024-01-11T09:48:48;42.10;;;20.40;;
6987;SDS011;3534;49.960;8.018;2024-01-11T09:51:17;35.93;;;19.50;;
6987;SDS011;3534;49.960;8.018;2024-01-11T09:53:44;53.53;;;23.73;;
6987;SDS011;3534;49.960;8.018;2024-01-11T09:56:11;48.20;;;22.00;;
6987;SDS011;3534;49.960;8.018;2024-01-11T09:58:38;41.63;;;21.77;;
6987;SDS011;3534;49.960;8.018;2024-01-11T10:01:10;42.10;;;20.70;;
6987;SDS011;3534;49.960;8.018;2024-01-11T10:03:38;47.40;;;22.23;;
6987;SDS011;3534;49.960;8.018;2024-01-11T10:06:06;44.53;;;21.40;;
6987;SDS011;3534;49.960;8.018;2024-01-11T10:08:34;53.30;;;20.97;;
6987;SDS011;3534;49.960;8.018;2024-01-11T10:11:01;44.53;;;21.00;;
6987;SDS011;3534;49.960;8.018;2024-01-11T10:13:29;43.03;;;22.27;;
6987;SDS011;3534;49.960;8.018;2024-01-11T10:16:07;49.47;;;21.90;;
6987;SDS011;3534;49.960;8.018;2024-01-11T10:18:34;44.43;;;20.63;;
6987;SDS011;3534;49.960;8.018;2024-01-11T10:21:01;42.10;;;20.43;;
6987;SDS011;3534;49.960;8.018;2024-01-11T10:23:28;37.27;;;19.50;;
6987;SDS011;3534;49.960;8.018;2024-01-11T10:25:57;36.57;;;19.03;;
6987;SDS011;3534;49.960;8.018;2024-01-11T10:28:24;41.37;;;19.20;;
6987;SDS011;3534;49.960;8.018;2024-01-11T10:30:51;45.00;;;19.93;;
6987;SDS011;3534;49.960;8.018;2024-01-11T10:33:19;32.23;;;17.63;;
6987;SDS011;3534;49.960;8.018;2024-01-11T10:35:46;42.57;;;19.20;;
6987;SDS011;3534;49.960;8.018;2024-01-11T10:38:15;38.47;;;19.40;;
6987;SDS011;3534;49.960;8.018;2024-01-11T10:40:43;43.90;;;19.60;;
6987;SDS011;3534;49.960;8.018;2024-01-11T10:43:11;45.53;;;21.40;;
6987;SDS011;3534;49.960;8.018;2024-01-11T10:45:41;38.83;;;19.63;;
6987;SDS011;3534;49.960;8.018;2024-01-11T10:48:13;41.20;;;20.70;;
6987;SDS011;3534;49.960;8.018;2024-01-11T10:50:42;34.93;;;18.20;;
6987;SDS011;3534;49.960;8.018;2024-01-11T10:53:12;37.70;;;19.47;;
6987;SDS011;3534;49.960;8.018;2024-01-11T10:55:50;39.60;;;19.40;;
6987;SDS011;3534;49.960;8.018;2024-01-11T10:58:19;40.17;;;20.20;;
6987;SDS011;3534;49.960;8.018;2024-01-11T11:00:47;40.87;;;20.70;;
6987;SDS011;3534;49.960;8.018;2024-01-11T11:03:14;36.93;;;18.63;;
6987;SDS011;3534;49.960;8.018;2024-01-11T11:05:41;35.50;;;19.10;;
6987;SDS011;3534;49.960;8.018;2024-01-11T11:08:09;41.57;;;19.40;;
6987;SDS011;3534;49.960;8.018;2024-01-11T11:10:38;44.10;;;19.60;;
6987;SDS011;3534;49.960;8.018;2024-01-11T11:13:06;36.03;;;18.77;;
6987;SDS011;3534;49.960;8.018;2024-01-11T11:15:37;42.40;;;20.30;;
6987;SDS011;3534;49.960;8.018;2024-01-11T11:18:05;37.50;;;19.47;;
6987;SDS011;3534;49.960;8.018;2024-01-11T11:20:32;36.70;;;20.63;;
6987;SDS011;3534;49.960;8.018;2024-01-11T11:23:05;38.23;;;19.57;;
6987;SDS011;3534;49.960;8.018;2024-01-11T11:25:34;34.07;;;19.20;;
6987;SDS011;3534;49.960;8.018;2024-01-11T11:28:01;34.63;;;19.37;;
6987;SDS011;3534;49.960;8.018;2024-01-11T11:30:29;39.37;;;19.40;;
6987;SDS011;3534;49.960;8.018;2024-01-11T11:32:57;37.23;;;18.03;;
6987;SDS011;3534;49.960;8.018;2024-01-11T11:35:25;40.57;;;19.10;;
6987;SDS011;3534;49.960;8.018;2024-01-11T11:37:55;37.10;;;20.23;;
6987;SDS011;3534;49.960;8.018;2024-01-11T11:40:31;39.93;;;21.37;;
6987;SDS011;3534;49.960;8.018;2024-01-11T11:43:00;37.03;;;19.60;;
6987;SDS011;3534;49.960;8.018;2024-01-11T11:45:27;35.60;;;19.07;;
6987;SDS011;3534;49.960;8.018;2024-01-11T11:47:54;35.43;;;19.10;;
6987;SDS011;3534;49.960;8.018;2024-01-11T11:50:22;40.97;;;20.13;;
6987;SDS011;3534;49.960;8.018;2024-01-11T11:52:53;38.97;;;20.80;;
6987;SDS011;3534;49.960;8.018;2024-01-11T11:55:20;36.67;;;19.87;;
6987;SDS011;3534;49.960;8.018;2024-01-11T11:57:48;37.90;;;20.77;;
6987;SDS011;3534;49.960;8.018;2024-01-11T12:00:16;38.47;;;20.20;;
6987;SDS011;3534;49.960;8.018;2024-01-11T12:02:43;37.37;;;19.20;;
6987;SDS011;3534;49.960;8.018;2024-01-11T12:05:10;33.90;;;17.27;;
6987;SDS011;3534;49.960;8.018;2024-01-11T12:07:38;38.17;;;19.60;;
6987;SDS011;3534;49.960;8.018;2024-01-11T12:10:05;39.57;;;20.80;;
6987;SDS011;3534;49.960;8.018;2024-01-11T12:12:33;32.30;;;17.83;;
6987;SDS011;3534;49.960;8.018;2024-01-11T12:15:00;38.03;;;18.40;;
6987;SDS011;3534;49.960;8.018;2024-01-11T12:17:29;36.77;;;19.93;;
6987;SDS011;3534;49.960;8.018;2024-01-11T12:19:55;41.87;;;20.30;;
6987;SDS011;3534;49.960;8.018;2024-01-11T12:22:23;35.57;;;17.47;;
6987;SDS011;3534;49.960;8.018;2024-01-11T12:24:51;33.20;;;19.40;;
6987;SDS011;3534;49.960;8.018;2024-01-11T12:27:18;36.30;;;18.67;;
6987;SDS011;3534;49.960;8.018;2024-01-11T12:29:45;35.60;;;20.63;;
6987;SDS011;3534;49.960;8.018;2024-01-11T12:32:13;37.97;;;19.00;;
6987;SDS011;3534;49.960;8.018;2024-01-11T12:34:42;34.97;;;19.50;;
6987;SDS011;3534;49.960;8.018;2024-01-11T12:37:10;31.03;;;19.23;;
6987;SDS011;3534;49.960;8.018;2024-01-11T12:39:37;38.07;;;20.43;;
6987;SDS011;3534;49.960;8.018;2024-01-11T12:42:06;37.80;;;18.67;;
6987;SDS011;3534;49.960;8.018;2024-01-11T12:44:34;33.87;;;18.40;;
6987;SDS011;3534;49.960;8.018;2024-01-11T12:47:03;34.50;;;19.40;;
6987;SDS011;3534;49.960;8.018;2024-01-11T12:49:30;35.60;;;18.43;;
6987;SDS011;3534;49.960;8.018;2024-01-11T12:51:57;35.93;;;19.63;;
6987;SDS011;3534;49.960;8.018;2024-01-11T12:54:24;36.20;;;20.20;;
6987;SDS011;3534;49.960;8.018;2024-01-11T12:56:51;38.23;;;19.80;;
6987;SDS011;3534;49.960;8.018;2024-01-11T12:59:19;39.73;;;20.47;;
6987;SDS011;3534;49.960;8.018;2024-01-11T13:01:45;39.87;;;21.53;;
6987;SDS011;3534;49.960;8.018;2024-01-11T13:04:12;53.80;;;27.07;;
6987;SDS011;3534;49.960;8.018;2024-01-11T13:06:39;73.97;;;35.70;;
6987;SDS011;3534;49.960;8.018;2024-01-11T13:09:06;42.07;;;22.37;;
6987;SDS011;3534;49.960;8.018;2024-01-11T13:11:33;41.20;;;20.70;;
6987;SDS011;3534;49.960;8.018;2024-01-11T13:13:59;45.07;;;24.60;;
6987;SDS011;3534;49.960;8.018;2024-01-11T13:16:34;32.87;;;20.97;;
6987;SDS011;3534;49.960;8.018;2024-01-11T13:19:01;36.23;;;20.93;;
6987;SDS011;3534;49.960;8.018;2024-01-11T13:21:28;36.07;;;19.60;;
6987;SDS011;3534;49.960;8.018;2024-01-11T13:23:55;36.80;;;20.20;;
6987;SDS011;3534;49.960;8.018;2024-01-11T13:26:22;32.37;;;19.30;;
6987;SDS011;3534;49.960;8.018;2024-01-11T13:28:48;32.10;;;19.90;;
6987;SDS011;3534;49.960;8.018;2024-01-11T13:31:17;33.97;;;18.33;;
6987;SDS011;3534;49.960;8.018;2024-01-11T13:33:45;34.93;;;20.17;;
6987;SDS011;3534;49.960;8.018;2024-01-11T13:36:11;34.63;;;20.03;;
6987;SDS011;3534;49.960;8.018;2024-01-11T13:38:38;36.00;;;17.83;;
6987;SDS011;3534;49.960;8.018;2024-01-11T13:41:06;31.90;;;18.73;;
6987;SDS011;3534;49.960;8.018;2024-01-11T13:43:33;38.97;;;19.80;;
6987;SDS011;3534;49.960;8.018;2024-01-11T13:46:00;36.50;;;18.97;;
6987;SDS011;3534;49.960;8.018;2024-01-11T13:48:29;39.17;;;20.47;;
6987;SDS011;3534;49.960;8.018;2024-01-11T13:50:58;37.53;;;19.77;;
6987;SDS011;3534;49.960;8.018;2024-01-11T13:53:24;37.53;;;18.33;;
6987;SDS011;3534;49.960;8.018;2024-01-11T13:55:51;34.83;;;18.33;;
6987;SDS011;3534;49.960;8.018;2024-01-11T13:58:18;40.00;;;22.20;;
6987;SDS011;3534;49.960;8.018;2024-01-11T14:00:45;35.27;;;19.30;;
6987;SDS011;3534;49.960;8.018;2024-01-11T14:03:11;42.10;;;21.50;;
6987;SDS011;3534;49.960;8.018;2024-01-11T14:05:38;39.80;;;20.93;;
6987;SDS011;3534;49.960;8.018;2024-01-11T14:08:06;35.93;;;21.23;;
6987;SDS011;3534;49.960;8.018;2024-01-11T14:10:33;40.77;;;21.03;;
6987;SDS011;3534;49.960;8.018;2024-01-11T14:13:00;36.70;;;19.53;;
6987;SDS011;3534;49.960;8.018;2024-01-11T14:15:28;40.87;;;20.97;;
6987;SDS011;3534;49.960;8.018;2024-01-11T14:17:56;37.20;;;18.70;;
6987;SDS011;3534;49.960;8.018;2024-01-11T14:20:22;39.43;;;18.53;;
6987;SDS011;3534;49.960;8.018;2024-01-11T14:22:49;33.23;;;17.93;;
6987;SDS011;3534;49.960;8.018;2024-01-11T14:25:18;34.80;;;17.20;;
6987;SDS011;3534;49.960;8.018;2024-01-11T14:27:48;30.90;;;17.13;;
6987;SDS011;3534;49.960;8.018;2024-01-11T14:30:15;29.80;;;18.17;;
6987;SDS011;3534;49.960;8.018;2024-01-11T14:32:42;32.93;;;17.43;;
6987;SDS011;3534;49.960;8.018;2024-01-11T14:35:10;30.23;;;16.73;;
6987;SDS011;3534;49.960;8.018;2024-01-11T14:37:37;30.63;;;18.27;;
6987;SDS011;3534;49.960;8.018;2024-01-11T14:40:06;38.67;;;17.80;;
6987;SDS011;3534;49.960;8.018;2024-01-11T14:42:36;31.87;;;18.87;;
6987;SDS011;3534;49.960;8.018;2024-01-11T14:45:03;34.47;;;19.83;;
6987;SDS011;3534;49.960;8.018;2024-01-11T14:47:31;32.53;;;17.37;;
6987;SDS011;3534;49.960;8.018;2024-01-11T14:49:59;29.83;;;18.00;;
6987;SDS011;3534;49.960;8.018;2024-01-11T14:52:25;39.50;;;20.70;;